sensor_id;sensor_type;location;lat;lon;timestamp;pressure;altitude;pressure_sealevel;temperature;humidity
63343;BME280;49465;57.664;39.686;2023-02-16T00:01:32;101451.69;;;0.33;52.37
63343;BME280;49465;57.664;39.686;2023-02-16T00:03:58;101442.94;;;0.62;51.58
63343;BME280;49465;57.664;39.686;2023-02-16T00:06:28;101441.97;;;0.85;50.84
63343;BME280;49465;57.664;39.686;2023-02-16T00:08:55;101444.69;;;0.62;51.90
63343;BME280;49465;57.664;39.686;2023-02-16T00:11:32;101446.56;;;0.18;52.77
63343;BME280;49465;57.664;39.686;2023-02-16T00:14:19;101444.94;;;-0.22;53.06
63343;BME280;49465;57.664;39.686;2023-02-16T00:16:58;101453.44;;;0.13;53.00
63343;BME280;49465;57.664;39.686;2023-02-16T00:19:30;101447.25;;;0.60;51.78
63343;BME280;49465;57.664;39.686;2023-02-16T00:22:11;101452.63;;;0.06;52.76
63343;BME280;49465;57.664;39.686;2023-02-16T00:24:37;101444.91;;;-0.11;52.60
63343;BME280;49465;57.664;39.686;2023-02-16T00:27:14;101442.13;;;0.54;51.99
63343;BME280;49465;57.664;39.686;2023-02-16T00:29:43;101451.81;;;-0.25;53.07
63343;BME280;49465;57.664;39.686;2023-02-16T00:32:21;101454.34;;;-0.02;52.93
63343;BME280;49465;57.664;39.686;2023-02-16T00:34:54;101452.66;;;-0.09;52.77
63343;BME280;49465;57.664;39.686;2023-02-16T00:37:24;101451.81;;;-0.10;52.95
63343;BME280;49465;57.664;39.686;2023-02-16T00:39:56;101443.19;;;-0.10;53.26
63343;BME280;49465;57.664;39.686;2023-02-16T00:42:31;101446.63;;;-0.07;53.17
63343;BME280;49465;57.664;39.686;2023-02-16T00:45:08;101445.53;;;0.61;51.62
63343;BME280;49465;57.664;39.686;2023-02-16T00:47:43;101439.75;;;-0.05;52.82
63343;BME280;49465;57.664;39.686;2023-02-16T00:53:18;101438.59;;;0.72;51.23
63343;BME280;49465;57.664;39.686;2023-02-16T00:55:45;101433.75;;;-0.19;52.31
63343;BME280;49465;57.664;39.686;2023-02-16T00:58:35;101436.22;;;0.19;52.49
63343;BME280;49465;57.664;39.686;2023-02-16T01:01:22;101443.13;;;0.19;52.48
63343;BME280;49465;57.664;39.686;2023-02-16T01:03:56;101434.59;;;-0.14;52.57
63343;BME280;49465;57.664;39.686;2023-02-16T01:06:27;101435.50;;;-0.27;52.55
63343;BME280;49465;57.664;39.686;2023-02-16T01:09:20;101448.34;;;0.01;52.65
63343;BME280;49465;57.664;39.686;2023-02-16T01:12:16;101438.03;;;0.01;52.60
63343;BME280;49465;57.664;39.686;2023-02-16T01:14:51;101437.16;;;-0.06;52.55
63343;BME280;49465;57.664;39.686;2023-02-16T01:17:23;101437.19;;;-0.18;52.45
63343;BME280;49465;57.664;39.686;2023-02-16T01:19:50;101441.50;;;-0.28;52.59
63343;BME280;49465;57.664;39.686;2023-02-16T01:22:19;101435.50;;;-0.27;52.94
63343;BME280;49465;57.664;39.686;2023-02-16T01:24:48;101443.25;;;-0.35;52.80
63343;BME280;49465;57.664;39.686;2023-02-16T01:27:18;101444.06;;;-0.24;53.05
63343;BME280;49465;57.664;39.686;2023-02-16T01:29:47;101439.50;;;0.60;51.20
63343;BME280;49465;57.664;39.686;2023-02-16T01:32:17;101449.19;;;-0.07;52.29
63343;BME280;49465;57.664;39.686;2023-02-16T01:34:43;101441.22;;;0.64;51.21
63343;BME280;49465;57.664;39.686;2023-02-16T01:37:21;101450.03;;;0.06;52.54
63343;BME280;49465;57.664;39.686;2023-02-16T01:39:49;101449.25;;;-0.33;52.51
63343;BME280;49465;57.664;39.686;2023-02-16T01:42:28;101443.19;;;-0.07;52.59
63343;BME280;49465;57.664;39.686;2023-02-16T01:45:29;101456.91;;;0.12;52.35
63343;BME280;49465;57.664;39.686;2023-02-16T01:48:03;101456.94;;;-0.24;52.66
63343;BME280;49465;57.664;39.686;2023-02-16T01:50:48;101456.06;;;-0.12;52.71
63343;BME280;49465;57.664;39.686;2023-02-16T01:53:25;101459.56;;;-0.42;52.75
63343;BME280;49465;57.664;39.686;2023-02-16T01:56:03;101464.69;;;-0.10;52.67
63343;BME280;49465;57.664;39.686;2023-02-16T02:04:18;101474.13;;;-0.09;52.37
63343;BME280;49465;57.664;39.686;2023-02-16T02:07:03;101475.88;;;-0.40;52.68
63343;BME280;49465;57.664;39.686;2023-02-16T02:09:53;101486.16;;;-0.14;52.06
63343;BME280;49465;57.664;39.686;2023-02-16T02:12:32;101479.09;;;0.56;50.71
63343;BME280;49465;57.664;39.686;2023-02-16T02:15:02;101480.19;;;-0.33;51.51
63343;BME280;49465;57.664;39.686;2023-02-16T02:17:34;101482.75;;;-0.44;52.40
63343;BME280;49465;57.664;39.686;2023-02-16T02:28:34;101487.88;;;-0.22;52.18
63343;BME280;49465;57.664;39.686;2023-02-16T02:34:09;101498.22;;;-0.19;52.06
63343;BME280;49465;57.664;39.686;2023-02-16T02:36:50;101504.22;;;-0.26;51.95
63343;BME280;49465;57.664;39.686;2023-02-16T02:42:36;101509.38;;;-0.08;51.37
63343;BME280;49465;57.664;39.686;2023-02-16T02:45:31;101508.38;;;0.52;50.55
63343;BME280;49465;57.664;39.686;2023-02-16T02:48:00;101505.94;;;-0.45;51.58
63343;BME280;49465;57.664;39.686;2023-02-16T02:50:38;101515.28;;;0.44;50.41
63343;BME280;49465;57.664;39.686;2023-02-16T02:53:26;101505.06;;;-0.01;51.42
63343;BME280;49465;57.664;39.686;2023-02-16T02:56:10;101507.66;;;-0.32;51.53
63343;BME280;49465;57.664;39.686;2023-02-16T02:59:07;101510.22;;;-0.33;51.64
63343;BME280;49465;57.664;39.686;2023-02-16T03:01:59;101517.09;;;-0.40;51.38
63343;BME280;49465;57.664;39.686;2023-02-16T03:04:30;101529.13;;;-0.50;51.22
63343;BME280;49465;57.664;39.686;2023-02-16T03:07:01;101523.09;;;-0.70;51.29
63343;BME280;49465;57.664;39.686;2023-02-16T03:09:37;101524.84;;;-0.58;50.81
63343;BME280;49465;57.664;39.686;2023-02-16T03:12:08;101529.97;;;-0.55;50.83
63343;BME280;49465;57.664;39.686;2023-02-16T03:15:04;101530.81;;;-0.55;50.16
63343;BME280;49465;57.664;39.686;2023-02-16T03:17:40;101523.09;;;0.24;49.63
63343;BME280;49465;57.664;39.686;2023-02-16T03:20:27;101529.13;;;-0.56;49.98
63343;BME280;49465;57.664;39.686;2023-02-16T03:23:15;101531.69;;;-0.68;50.11
63343;BME280;49465;57.664;39.686;2023-02-16T03:26:03;101535.09;;;-0.74;50.48
63343;BME280;49465;57.664;39.686;2023-02-16T03:28:52;101532.47;;;-0.91;50.49
63343;BME280;49465;57.664;39.686;2023-02-16T03:31:43;101535.94;;;-0.80;49.95
63343;BME280;49465;57.664;39.686;2023-02-16T03:34:16;101534.28;;;0.06;49.58
63343;BME280;49465;57.664;39.686;2023-02-16T03:36:54;101541.13;;;-0.66;50.35
63343;BME280;49465;57.664;39.686;2023-02-16T03:39:33;101526.53;;;0.06;49.25
63343;BME280;49465;57.664;39.686;2023-02-16T03:42:27;101523.06;;;0.17;49.44
63343;BME280;49465;57.664;39.686;2023-02-16T03:44:56;101526.53;;;0.26;49.25
63343;BME280;49465;57.664;39.686;2023-02-16T03:47:28;101529.09;;;0.21;48.96
63343;BME280;49465;57.664;39.686;2023-02-16T03:50:04;101530.81;;;-0.70;49.61
63343;BME280;49465;57.664;39.686;2023-02-16T03:52:36;101534.28;;;-0.05;48.90
63343;BME280;49465;57.664;39.686;2023-02-16T03:55:05;101522.25;;;0.03;49.15
63343;BME280;49465;57.664;39.686;2023-02-16T03:57:42;101530.78;;;-0.83;49.50
63343;BME280;49465;57.664;39.686;2023-02-16T04:00:12;101518.81;;;-0.16;49.62
63343;BME280;49465;57.664;39.686;2023-02-16T04:02:43;101526.56;;;-0.05;49.33
63343;BME280;49465;57.664;39.686;2023-02-16T04:05:13;101528.97;;;-1.16;49.08
63343;BME280;49465;57.664;39.686;2023-02-16T04:07:39;101527.16;;;-1.34;49.47
63343;BME280;49465;57.664;39.686;2023-02-16T04:10:14;101530.66;;;-1.18;49.21
63343;BME280;49465;57.664;39.686;2023-02-16T04:12:44;101528.91;;;-1.33;49.42
63343;BME280;49465;57.664;39.686;2023-02-16T04:15:18;101530.00;;;-0.46;48.50
63343;BME280;49465;57.664;39.686;2023-02-16T04:17:48;101527.44;;;-0.31;48.29
63343;BME280;49465;57.664;39.686;2023-02-16T04:20:23;101531.72;;;-0.27;48.83
63343;BME280;49465;57.664;39.686;2023-02-16T04:23:02;101531.50;;;-1.22;49.00
63343;BME280;49465;57.664;39.686;2023-02-16T04:25:41;101529.97;;;-0.49;48.25
63343;BME280;49465;57.664;39.686;2023-02-16T04:28:11;101533.44;;;-0.41;48.02
63343;BME280;49465;57.664;39.686;2023-02-16T04:30:40;101534.03;;;-1.39;48.79
63343;BME280;49465;57.664;39.686;2023-02-16T04:33:10;101529.09;;;-0.64;48.26
63343;BME280;49465;57.664;39.686;2023-02-16T04:35:43;101533.84;;;-1.67;47.70
63343;BME280;49465;57.664;39.686;2023-02-16T04:38:12;101538.53;;;-0.73;47.78
63343;BME280;49465;57.664;39.686;2023-02-16T04:40:41;101541.63;;;-1.61;47.52
63343;BME280;49465;57.664;39.686;2023-02-16T04:43:14;101535.94;;;-0.80;47.96
63343;BME280;49465;57.664;39.686;2023-02-16T04:45:46;101539.41;;;-0.68;48.39
63343;BME280;49465;57.664;39.686;2023-02-16T04:48:20;101542.44;;;-1.65;47.71
63343;BME280;49465;57.664;39.686;2023-02-16T04:50:59;101536.75;;;-0.88;48.03
63343;BME280;49465;57.664;39.686;2023-02-16T04:53:29;101542.81;;;-0.78;48.27
63343;BME280;49465;57.664;39.686;2023-02-16T04:55:59;101543.25;;;-1.75;47.63
63343;BME280;49465;57.664;39.686;2023-02-16T04:58:25;101547.06;;;-0.97;48.35
63343;BME280;49465;57.664;39.686;2023-02-16T05:00:52;101542.81;;;-0.88;48.32
63343;BME280;49465;57.664;39.686;2023-02-16T05:03:27;101546.50;;;-1.99;48.11
63343;BME280;49465;57.664;39.686;2023-02-16T05:05:54;101553.88;;;-1.07;48.44
63343;BME280;49465;57.664;39.686;2023-02-16T05:08:22;101552.41;;;-2.11;47.82
63343;BME280;49465;57.664;39.686;2023-02-16T05:10:55;101555.56;;;-1.17;48.39
63343;BME280;49465;57.664;39.686;2023-02-16T05:13:45;101559.91;;;-1.05;48.19
63343;BME280;49465;57.664;39.686;2023-02-16T05:16:32;101560.78;;;-1.03;48.32
63343;BME280;49465;57.664;39.686;2023-02-16T05:19:01;101565.06;;;-1.05;48.13
63343;BME280;49465;57.664;39.686;2023-02-16T05:21:35;101562.44;;;-1.08;48.22
63343;BME280;49465;57.664;39.686;2023-02-16T05:24:11;101563.63;;;-2.06;48.01
63343;BME280;49465;57.664;39.686;2023-02-16T05:26:40;101558.91;;;-1.35;48.02
63343;BME280;49465;57.664;39.686;2023-02-16T05:29:09;101561.50;;;-1.26;48.36
63343;BME280;49465;57.664;39.686;2023-02-16T05:31:46;101559.81;;;-1.24;47.88
63343;BME280;49465;57.664;39.686;2023-02-16T05:34:16;101560.91;;;-2.21;48.31
63343;BME280;49465;57.664;39.686;2023-02-16T05:36:47;101566.56;;;-1.47;47.98
63343;BME280;49465;57.664;39.686;2023-02-16T05:39:16;101566.78;;;-2.34;48.50
63343;BME280;49465;57.664;39.686;2023-02-16T05:41:45;101569.97;;;-1.54;48.59
63343;BME280;49465;57.664;39.686;2023-02-16T05:44:17;101571.75;;;-1.41;47.83
63343;BME280;49465;57.664;39.686;2023-02-16T05:46:46;101576.91;;;-1.38;48.33
63343;BME280;49465;57.664;39.686;2023-02-16T05:49:14;101568.38;;;-2.46;50.19
63343;BME280;49465;57.664;39.686;2023-02-16T05:51:46;101567.38;;;-1.56;48.43
63343;BME280;49465;57.664;39.686;2023-02-16T05:54:13;101570.03;;;-1.42;48.17
63343;BME280;49465;57.664;39.686;2023-02-16T05:56:44;101566.59;;;-1.40;48.46
63343;BME280;49465;57.664;39.686;2023-02-16T05:59:14;101568.41;;;-2.44;50.34
63343;BME280;49465;57.664;39.686;2023-02-16T06:01:45;101563.94;;;-1.58;48.95
63343;BME280;49465;57.664;39.686;2023-02-16T06:04:14;101567.63;;;-2.35;50.01
63343;BME280;49465;57.664;39.686;2023-02-16T06:06:43;101563.94;;;-1.56;49.02
63343;BME280;49465;57.664;39.686;2023-02-16T06:09:13;101560.78;;;-2.33;50.30
63343;BME280;49465;57.664;39.686;2023-02-16T06:11:42;101566.53;;;-1.53;49.35
63343;BME280;49465;57.664;39.686;2023-02-16T06:14:19;101573.47;;;-1.35;48.48
63343;BME280;49465;57.664;39.686;2023-02-16T06:16:48;101563.22;;;-1.31;48.69
63343;BME280;49465;57.664;39.686;2023-02-16T06:19:16;101567.53;;;-1.28;48.66
63343;BME280;49465;57.664;39.686;2023-02-16T06:21:43;101565.81;;;-1.25;48.44
63343;BME280;49465;57.664;39.686;2023-02-16T06:24:13;101566.69;;;-1.24;48.24
63343;BME280;49465;57.664;39.686;2023-02-16T06:26:48;101567.78;;;-2.17;50.42
63343;BME280;49465;57.664;39.686;2023-02-16T06:29:19;101564.88;;;-1.41;49.41
63343;BME280;49465;57.664;39.686;2023-02-16T06:31:53;101558.06;;;-1.28;48.91
63343;BME280;49465;57.664;39.686;2023-02-16T06:34:30;101559.00;;;-1.20;48.21
63343;BME280;49465;57.664;39.686;2023-02-16T06:36:57;101563.28;;;-1.17;48.94
63343;BME280;49465;57.664;39.686;2023-02-16T06:39:26;101559.84;;;-1.16;48.81
63343;BME280;49465;57.664;39.686;2023-02-16T06:42:00;101565.00;;;-1.14;49.07
63343;BME280;49465;57.664;39.686;2023-02-16T06:44:32;101565.00;;;-1.10;49.01
63343;BME280;49465;57.664;39.686;2023-02-16T06:47:01;101559.88;;;-1.08;48.62
63343;BME280;49465;57.664;39.686;2023-02-16T06:49:31;101565.41;;;-1.94;49.85
63343;BME280;49465;57.664;39.686;2023-02-16T06:52:00;101559.81;;;-1.24;48.94
63343;BME280;49465;57.664;39.686;2023-02-16T06:54:27;101554.13;;;-2.11;50.38
63343;BME280;49465;57.664;39.686;2023-02-16T06:56:56;101549.81;;;-2.15;50.27
63343;BME280;49465;57.664;39.686;2023-02-16T06:59:22;101556.44;;;-1.13;49.71
63343;BME280;49465;57.664;39.686;2023-02-16T07:01:49;101556.50;;;-0.89;49.50
63343;BME280;49465;57.664;39.686;2023-02-16T07:04:15;101556.94;;;-1.79;49.96
63343;BME280;49465;57.664;39.686;2023-02-16T07:06:50;101548.34;;;-1.81;50.74
63343;BME280;49465;57.664;39.686;2023-02-16T07:09:22;101558.25;;;-0.82;49.81
63343;BME280;49465;57.664;39.686;2023-02-16T07:11:52;101554.50;;;-1.57;50.38
63343;BME280;49465;57.664;39.686;2023-02-16T07:14:21;101561.72;;;-0.61;49.79
63343;BME280;49465;57.664;39.686;2023-02-16T07:16:59;101560.91;;;-0.40;49.55
63343;BME280;49465;57.664;39.686;2023-02-16T07:19:30;101554.06;;;-0.27;49.73
63343;BME280;49465;57.664;39.686;2023-02-16T07:22:00;101564.16;;;-1.10;49.68
63343;BME280;49465;57.664;39.686;2023-02-16T07:24:32;101551.50;;;-0.21;49.52
63343;BME280;49465;57.664;39.686;2023-02-16T07:26:58;101554.78;;;-0.99;49.20
63343;BME280;49465;57.664;39.686;2023-02-16T07:29:27;101554.75;;;-1.05;49.93
63343;BME280;49465;57.664;39.686;2023-02-16T07:31:56;101561.81;;;-0.07;49.62
63343;BME280;49465;57.664;39.686;2023-02-16T07:34:23;101558.34;;;0.11;49.07
63343;BME280;49465;57.664;39.686;2023-02-16T07:36:49;101563.38;;;-0.85;49.54
63343;BME280;49465;57.664;39.686;2023-02-16T07:39:15;101564.22;;;-0.95;49.64
63343;BME280;49465;57.664;39.686;2023-02-16T07:41:42;101559.06;;;-0.95;49.54
63343;BME280;49465;57.664;39.686;2023-02-16T07:44:08;101566.09;;;0.00;49.41
63343;BME280;49465;57.664;39.686;2023-02-16T07:46:37;101562.56;;;-0.71;49.86
63343;BME280;49465;57.664;39.686;2023-02-16T07:49:07;101563.50;;;0.11;49.74
63343;BME280;49465;57.664;39.686;2023-02-16T07:51:37;101562.59;;;-0.59;50.20
63343;BME280;49465;57.664;39.686;2023-02-16T07:54:08;101568.59;;;-0.66;50.10
63343;BME280;49465;57.664;39.686;2023-02-16T07:56:34;101562.56;;;-0.82;49.98
63343;BME280;49465;57.664;39.686;2023-02-16T07:59:06;101565.19;;;0.19;49.79
63343;BME280;49465;57.664;39.686;2023-02-16T08:01:37;101566.88;;;-0.61;49.62
63343;BME280;49465;57.664;39.686;2023-02-16T08:04:12;101562.63;;;0.30;49.66
63343;BME280;49465;57.664;39.686;2023-02-16T08:06:43;101555.72;;;-0.55;50.00
63343;BME280;49465;57.664;39.686;2023-02-16T08:09:19;101557.47;;;-0.61;50.11
63343;BME280;49465;57.664;39.686;2023-02-16T08:12:00;101560.91;;;-0.48;49.54
63343;BME280;49465;57.664;39.686;2023-02-16T08:14:29;101554.88;;;-0.59;50.17
63343;BME280;49465;57.664;39.686;2023-02-16T08:16:58;101560.03;;;-0.56;50.57
63343;BME280;49465;57.664;39.686;2023-02-16T08:19:32;101557.50;;;-0.33;51.24
63343;BME280;49465;57.664;39.686;2023-02-16T08:22:01;101552.34;;;-0.39;50.85
63343;BME280;49465;57.664;39.686;2023-02-16T08:24:31;101548.88;;;-0.47;50.80
63343;BME280;49465;57.664;39.686;2023-02-16T08:27:02;101547.16;;;-0.44;50.85
63343;BME280;49465;57.664;39.686;2023-02-16T08:29:30;101544.59;;;-0.37;50.54
63343;BME280;49465;57.664;39.686;2023-02-16T08:31:57;101542.00;;;-0.37;50.25
63343;BME280;49465;57.664;39.686;2023-02-16T08:34:29;101537.72;;;-0.20;50.14
63343;BME280;49465;57.664;39.686;2023-02-16T08:37:01;101541.16;;;-0.09;50.03
63343;BME280;49465;57.664;39.686;2023-02-16T08:39:32;101535.00;;;0.71;49.84
63343;BME280;49465;57.664;39.686;2023-02-16T08:41:59;101541.16;;;-0.04;49.60
63343;BME280;49465;57.664;39.686;2023-02-16T08:44:32;101536.00;;;0.04;50.12
63343;BME280;49465;57.664;39.686;2023-02-16T08:47:01;101535.13;;;0.03;50.40
63343;BME280;49465;57.664;39.686;2023-02-16T08:49:31;101527.44;;;-0.08;50.08
63343;BME280;49465;57.664;39.686;2023-02-16T08:52:01;101528.25;;;-0.04;50.09
63343;BME280;49465;57.664;39.686;2023-02-16T08:54:34;101535.13;;;0.12;50.41
63343;BME280;49465;57.664;39.686;2023-02-16T08:57:13;101531.69;;;0.16;50.17
63343;BME280;49465;57.664;39.686;2023-02-16T08:59:42;101540.28;;;0.20;50.42
63343;BME280;49465;57.664;39.686;2023-02-16T09:02:10;101525.69;;;0.13;49.81
63343;BME280;49465;57.664;39.686;2023-02-16T09:04:37;101526.56;;;0.12;50.14
63343;BME280;49465;57.664;39.686;2023-02-16T09:07:03;101525.69;;;0.16;49.39
63343;BME280;49465;57.664;39.686;2023-02-16T09:09:30;101528.25;;;0.19;50.57
63343;BME280;49465;57.664;39.686;2023-02-16T09:12:02;101537.69;;;0.32;49.91
63343;BME280;49465;57.664;39.686;2023-02-16T09:14:29;101525.66;;;0.28;49.76
63343;BME280;49465;57.664;39.686;2023-02-16T09:16:58;101525.66;;;0.30;50.00
63343;BME280;49465;57.664;39.686;2023-02-16T09:19:27;101522.16;;;0.45;49.66
63343;BME280;49465;57.664;39.686;2023-02-16T09:21:59;101526.47;;;0.47;49.24
63343;BME280;49465;57.664;39.686;2023-02-16T09:24:31;101528.16;;;0.53;49.74
63343;BME280;49465;57.664;39.686;2023-02-16T09:26:58;101522.19;;;0.42;50.18
63343;BME280;49465;57.664;39.686;2023-02-16T09:29:29;101528.97;;;0.64;49.91
63343;BME280;49465;57.664;39.686;2023-02-16T09:32:00;101519.56;;;0.51;49.73
63343;BME280;49465;57.664;39.686;2023-02-16T09:34:41;101522.00;;;0.89;49.82
63343;BME280;49465;57.664;39.686;2023-02-16T09:37:12;101520.31;;;0.77;50.06
63343;BME280;49465;57.664;39.686;2023-02-16T09:39:45;101531.50;;;0.81;49.88
63343;BME280;49465;57.664;39.686;2023-02-16T09:45:15;101536.53;;;1.12;50.10
63343;BME280;49465;57.664;39.686;2023-02-16T09:47:49;101534.00;;;0.98;49.72
63343;BME280;49465;57.664;39.686;2023-02-16T09:50:27;101534.78;;;1.14;49.71
63343;BME280;49465;57.664;39.686;2023-02-16T09:53:31;101531.28;;;1.19;49.76
63343;BME280;49465;57.664;39.686;2023-02-16T10:05:30;101526.94;;;1.31;48.91
63343;BME280;49465;57.664;39.686;2023-02-16T10:07:36;101517.56;;;1.13;48.88
63343;BME280;49465;57.664;39.686;2023-02-16T10:10:20;101529.47;;;1.38;48.92
63343;BME280;49465;57.664;39.686;2023-02-16T10:13:18;101523.25;;;1.66;49.40
63343;BME280;49465;57.664;39.686;2023-02-16T10:15:49;101520.00;;;1.36;49.07
63343;BME280;49465;57.664;39.686;2023-02-16T10:18:29;101519.06;;;1.46;48.75
63343;BME280;49465;57.664;39.686;2023-02-16T10:21:01;101512.25;;;1.34;49.16
63343;BME280;49465;57.664;39.686;2023-02-16T10:23:44;101513.81;;;1.60;49.66
63343;BME280;49465;57.664;39.686;2023-02-16T10:26:33;101509.63;;;1.44;49.18
63343;BME280;49465;57.664;39.686;2023-02-16T10:29:16;101503.56;;;1.46;49.15
63343;BME280;49465;57.664;39.686;2023-02-16T10:37:41;101502.50;;;1.75;48.27
63343;BME280;49465;57.664;39.686;2023-02-16T10:48:22;101494.81;;;1.64;47.77
63343;BME280;49465;57.664;39.686;2023-02-16T10:51:02;101492.88;;;1.88;48.94
63343;BME280;49465;57.664;39.686;2023-02-16T10:56:23;101487.16;;;1.55;47.56
63343;BME280;49465;57.664;39.686;2023-02-16T10:58:50;101486.16;;;1.70;48.19
63343;BME280;49465;57.664;39.686;2023-02-16T11:01:27;101486.19;;;1.65;47.59
63343;BME280;49465;57.664;39.686;2023-02-16T11:04:13;101490.34;;;1.83;47.51
63343;BME280;49465;57.664;39.686;2023-02-16T11:07:27;101495.13;;;2.23;47.84
63343;BME280;49465;57.664;39.686;2023-02-16T11:10:09;101497.22;;;2.66;47.66
63343;BME280;49465;57.664;39.686;2023-02-16T11:12:54;101493.50;;;2.11;46.89
63343;BME280;49465;57.664;39.686;2023-02-16T11:15:27;101497.22;;;1.86;47.00
63343;BME280;49465;57.664;39.686;2023-02-16T11:18:04;101489.44;;;1.89;47.14
63343;BME280;49465;57.664;39.686;2023-02-16T11:23:21;101491.97;;;1.92;46.19
63343;BME280;49465;57.664;39.686;2023-02-16T11:29:18;101484.81;;;2.18;46.99
63343;BME280;49465;57.664;39.686;2023-02-16T11:31:53;101492.88;;;1.88;46.58
63343;BME280;49465;57.664;39.686;2023-02-16T11:37:12;101482.44;;;1.98;47.92
63343;BME280;49465;57.664;39.686;2023-02-16T11:39:51;101482.59;;;1.82;47.95
63343;BME280;49465;57.664;39.686;2023-02-16T11:44:53;101485.16;;;1.86;47.94
63343;BME280;49465;57.664;39.686;2023-02-16T11:52:45;101480.84;;;1.84;48.20
63343;BME280;49465;57.664;39.686;2023-02-16T11:55:28;101478.81;;;2.16;48.26
63343;BME280;49465;57.664;39.686;2023-02-16T12:12:17;101477.97;;;2.16;46.92
63343;BME280;49465;57.664;39.686;2023-02-16T12:14:55;101472.78;;;2.14;47.81
63343;BME280;49465;57.664;39.686;2023-02-16T12:20:34;101474.28;;;2.35;47.00
63343;BME280;49465;57.664;39.686;2023-02-16T12:23:16;101470.97;;;2.26;46.30
63343;BME280;49465;57.664;39.686;2023-02-16T12:26:54;101469.00;;;2.45;46.67
63343;BME280;49465;57.664;39.686;2023-02-16T12:41:00;101475.47;;;2.07;47.44
63343;BME280;49465;57.664;39.686;2023-02-16T12:43:51;101480.38;;;2.31;47.14
63343;BME280;49465;57.664;39.686;2023-02-16T12:46:50;101472.56;;;2.34;47.27
63343;BME280;49465;57.664;39.686;2023-02-16T12:49:30;101479.72;;;2.11;47.36
63343;BME280;49465;57.664;39.686;2023-02-16T12:57:45;101477.28;;;1.94;46.92
63343;BME280;49465;57.664;39.686;2023-02-16T13:02:52;101478.25;;;1.88;47.03
63343;BME280;49465;57.664;39.686;2023-02-16T13:05:37;101475.47;;;2.07;46.49
63343;BME280;49465;57.664;39.686;2023-02-16T13:08:45;101477.91;;;2.19;47.38
63343;BME280;49465;57.664;39.686;2023-02-16T13:13:53;101467.84;;;1.91;46.69
63343;BME280;49465;57.664;39.686;2023-02-16T13:19:02;101467.97;;;1.76;46.62
63343;BME280;49465;57.664;39.686;2023-02-16T13:36:48;101474.69;;;1.95;46.87
63343;BME280;49465;57.664;39.686;2023-02-16T13:45:29;101485.03;;;1.95;47.23
63343;BME280;49465;57.664;39.686;2023-02-16T13:48:10;101475.94;;;1.53;47.41
63343;BME280;49465;57.664;39.686;2023-02-16T13:50:44;101481.16;;;1.50;47.76
63343;BME280;49465;57.664;39.686;2023-02-16T13:53:19;101473.38;;;1.51;47.08
63343;BME280;49465;57.664;39.686;2023-02-16T13:55:49;101477.88;;;1.25;47.40
63343;BME280;49465;57.664;39.686;2023-02-16T13:58:41;101476.88;;;1.41;47.44
63343;BME280;49465;57.664;39.686;2023-02-16T14:01:37;101476.63;;;1.76;47.35
63343;BME280;49465;57.664;39.686;2023-02-16T14:12:21;101475.19;;;1.38;47.50
63343;BME280;49465;57.664;39.686;2023-02-16T14:15:03;101471.03;;;1.19;47.26
63343;BME280;49465;57.664;39.686;2023-02-16T14:17:35;101468.47;;;1.16;47.23
63343;BME280;49465;57.664;39.686;2023-02-16T14:20:24;101482.28;;;1.10;47.12
63343;BME280;49465;57.664;39.686;2023-02-16T14:22:57;101465.13;;;1.00;47.12
63343;BME280;49465;57.664;39.686;2023-02-16T14:25:34;101474.69;;;1.95;46.03
63343;BME280;49465;57.664;39.686;2023-02-16T14:31:02;101474.53;;;1.07;46.98
63343;BME280;49465;57.664;39.686;2023-02-16T14:33:44;101469.41;;;1.01;47.08
63343;BME280;49465;57.664;39.686;2023-02-16T14:36:22;101471.03;;;1.17;46.67
63343;BME280;49465;57.664;39.686;2023-02-16T14:38:55;101473.78;;;0.94;46.46
63343;BME280;49465;57.664;39.686;2023-02-16T14:41:26;101469.56;;;0.73;46.31
63343;BME280;49465;57.664;39.686;2023-02-16T14:58:12;101477.16;;;1.04;46.36
63343;BME280;49465;57.664;39.686;2023-02-16T15:01:01;101492.75;;;0.87;45.89
63343;BME280;49465;57.664;39.686;2023-02-16T15:03:46;101477.28;;;0.76;45.93
63343;BME280;49465;57.664;39.686;2023-02-16T15:08:58;101466.41;;;1.60;45.59
63343;BME280;49465;57.664;39.686;2023-02-16T15:11:33;101476.47;;;0.73;45.38
63343;BME280;49465;57.664;39.686;2023-02-16T15:14:09;101473.03;;;0.65;45.52
63343;BME280;49465;57.664;39.686;2023-02-16T15:16:42;101480.03;;;0.36;45.39
63343;BME280;49465;57.664;39.686;2023-02-16T15:19:26;101478.34;;;0.35;45.10
63343;BME280;49465;57.664;39.686;2023-02-16T15:22:22;101473.97;;;0.48;45.38
63343;BME280;49465;57.664;39.686;2023-02-16T15:25:32;101477.34;;;0.69;45.31
63343;BME280;49465;57.664;39.686;2023-02-16T15:38:35;101487.00;;;-0.12;44.16
63343;BME280;49465;57.664;39.686;2023-02-16T15:41:23;101496.44;;;0.08;44.23
63343;BME280;49465;57.664;39.686;2023-02-16T15:43:58;101490.47;;;-0.30;44.92
63343;BME280;49465;57.664;39.686;2023-02-16T15:46:34;101493.88;;;-0.05;44.12
63343;BME280;49465;57.664;39.686;2023-02-16T15:51:48;101496.47;;;-0.48;44.16
63343;BME280;49465;57.664;39.686;2023-02-16T15:54:30;101493.06;;;-0.10;44.63
63343;BME280;49465;57.664;39.686;2023-02-16T15:57:10;101495.63;;;-0.41;44.56
63343;BME280;49465;57.664;39.686;2023-02-16T15:59:50;101487.75;;;0.43;44.40
63343;BME280;49465;57.664;39.686;2023-02-16T16:02:42;101488.75;;;-0.35;44.38
63343;BME280;49465;57.664;39.686;2023-02-16T16:05:30;101494.75;;;-0.18;44.52
63343;BME280;49465;57.664;39.686;2023-02-16T16:08:15;101493.91;;;-0.42;44.31
63343;BME280;49465;57.664;39.686;2023-02-16T16:10:47;101484.44;;;-0.69;44.09
63343;BME280;49465;57.664;39.686;2023-02-16T16:13:36;101483.59;;;-0.40;44.68
63343;BME280;49465;57.664;39.686;2023-02-16T16:16:04;101493.88;;;0.09;44.52
63343;BME280;49465;57.664;39.686;2023-02-16T16:18:48;101492.97;;;0.24;44.34
63343;BME280;49465;57.664;39.686;2023-02-16T16:21:27;101491.25;;;0.26;44.49